ADDS METAR Data INFO
IDs: Format: Raw Decoded Include TAF

Data at: 1612 UTC 14 Aug 2018

KHHF 141555Z AUTO 16007KT 10SM SCT100 BKN120 24/20 A2996 RMK AO2 T02430196
KHHF 141535Z AUTO 17007KT 10SM SCT065 BKN100 OVC120 24/20 A2995 RMK AO2 T02390198
KHHF 141515Z AUTO 16010KT 10SM OVC100 23/19 A2995 RMK AO2 T02250190
KHHF 141455Z AUTO 16006KT 10SM SCT029 BKN110 22/19 A2997 RMK AO2 LTG DSNT NE T02170190
KHHF 141435Z AUTO 13005KT 10SM SCT016 BKN029 OVC100 21/19 A2998 RMK AO2 T02060191
KHHF 141415Z AUTO 08003KT 10SM DZ SCT015 BKN080 OVC100 21/19 A2999 RMK AO2 T02050191
KHHF 141355Z AUTO 09006KT 10SM SCT006 OVC015 21/20 A2998 RMK AO2 LTG DSNT E T02050195
KHHF 141335Z AUTO 08012G16KT 10SM VCTS BKN004 OVC010 21/21 A2997 RMK AO2 LTG DSNT N AND E T02110205
KHHF 141315Z AUTO 09010KT 10SM BKN004 BKN008 OVC120 21/21 A2995 RMK AO2 LTG DSNT NE T02120205
KHHF 141255Z AUTO 04006KT 10SM OVC120 21/21 A2996 RMK AO2 LTG DSNT NE T02110205
KHHF 141235Z AUTO 10009KT 10SM VCTS OVC120 21/21 A2995 RMK AO2 LTG DSNT N AND NE T02110205
KHHF 141215Z AUTO 10009KT 10SM BKN120 21/21 A2994 RMK AO2 LTG DSNT N AND NE T02110205
KHHF 141155Z AUTO 06007KT 10SM VCTS CLR 21/21 A2994 RMK AO2 LTG DSNT NE AND NW T02110205 10222 20211
KHHF 141135Z AUTO 04004KT 10SM SCT090 SCT120 21/20 A2994 RMK AO2 LTG DSNT N AND NE T02110203
KHHF 141115Z AUTO 00000KT 10SM SCT090 SCT120 21/20 A2993 RMK AO2 LTG DSNT NW THRU NE T02110202
KHHF 141055Z AUTO 00000KT 10SM CLR 21/20 A2993 RMK AO2 LTG DSNT N AND NE T02110203
KHHF 141035Z AUTO 19004KT 10SM CLR 21/20 A2992 RMK AO2 LTG DSNT N AND NE T02110204
KHHF 141015Z AUTO 18005KT 10SM CLR 21/20 A2991 RMK AO2 LTG DSNT N AND NW T02110202
KHHF 140955Z AUTO 17004KT 10SM CLR 21/20 A2992 RMK AO2 LTG DSNT N T02130204
KHHF 140935Z AUTO 00000KT 10SM SCT011 22/21 A2992 RMK AO2 LTG DSNT N T02160205
KHHF 140915Z AUTO 00000KT 10SM SCT120 22/21 A2993 RMK AO2 LTG DSNT N T02150205
KHHF 140855Z AUTO 00000KT 10SM SCT120 22/21 A2994 RMK AO2 LTG DSNT W T02150205
KHHF 140835Z AUTO 00000KT 10SM CLR 22/21 A2993 RMK AO2 LTG DSNT W T02160205
KHHF 140815Z AUTO 23004KT 10SM CLR 22/21 A2993 RMK AO2 LTG DSNT N AND W T02160205
KHHF 140755Z AUTO 22004KT 10SM CLR 22/21 A2994 RMK AO2 LTG DSNT N AND SW T02150205
KHHF 140735Z AUTO 17004KT 10SM CLR 22/21 A2994 RMK AO2 T02150205
KHHF 140715Z AUTO 16006KT 10SM CLR 22/21 A2993 RMK AO2 T02150205
KHHF 140655Z AUTO 09004KT 10SM SCT090 SCT110 22/20 A2996 RMK AO2 LTG DSNT W T02180203
KHHF 140635Z AUTO 16006KT 10SM VCTS BKN090 OVC110 22/20 A2997 RMK AO2 LTG DSNT SW T02190202
KHHF 140615Z AUTO 11005KT 10SM SCT012 OVC090 22/20 A2997 RMK AO2 LTG DSNT W T02160200
KHHF 140555Z AUTO 11006KT 10SM BKN090 22/20 A2998 RMK AO2 T02220203 10295 20218 403230197
KHHF 140535Z AUTO 15005KT 10SM CLR 22/20 A2997 RMK AO2 T02210201
KHHF 140515Z AUTO 13005KT 10SM CLR 22/20 A2997 RMK AO2 LTG DSNT N AND NE T02180197
KHHF 140455Z AUTO 14007KT 10SM CLR 22/20 A2997 RMK AO2 T02240200
KHHF 140435Z AUTO 16006KT 10SM CLR 23/20 A2996 RMK AO2 LTG DSNT N T02250200
KHHF 140415Z AUTO 15006KT 10SM CLR 23/20 A2995 RMK AO2 LTG DSNT N T02250196
KHHF 140355Z AUTO 18006KT 10SM VCTS CLR 23/20 A2995 RMK AO2 T02270195
KHHF 140335Z AUTO 15007KT 10SM CLR 23/20 A2995 RMK AO2 T02320195
KHHF 140315Z AUTO 17008KT 10SM CLR 24/19 A2995 RMK AO2 T02350193
KHHF 140255Z AUTO 15009KT 10SM CLR 24/20 A2994 RMK AO2 LTG DSNT N T02400195
KHHF 140235Z AUTO 16007KT 10SM CLR 24/19 A2993 RMK AO2 LTG DSNT N AND S T02400192
KHHF 140215Z AUTO 16008KT 10SM CLR 24/19 A2992 RMK AO2 T02430193
KHHF 140155Z AUTO 15012KT 10SM CLR 25/20 A2992 RMK AO2 T02500195
KHHF 140135Z AUTO 15012G16KT 10SM CLR 26/19 A2991 RMK AO2 T02580191
KHHF 140115Z AUTO 15012G16KT 10SM CLR 27/19 A2992 RMK AO2 LTG DSNT N T02680191
KHHF 140055Z AUTO 16012KT 10SM CLR 28/19 A2991 RMK AO2 LTG DSNT S T02760185
KHHF 140035Z AUTO 15012G17KT 10SM CLR 29/18 A2991 RMK AO2 T02860181
KHHF 140015Z AUTO 15011KT 10SM CLR 29/18 A2991 RMK AO2 T02900177
KHHF 132355Z AUTO 15010KT 10SM CLR 29/17 A2991 RMK AO2 T02920171 10323 20286
KHHF 132335Z AUTO 16010KT 10SM SCT060 30/17 A2992 RMK AO2 T02990169
KHHF 132315Z AUTO 14007KT 10SM SCT070 30/17 A2991 RMK AO2 T02970167
KHHF 132255Z AUTO 15009KT 10SM CLR 30/17 A2992 RMK AO2 T02970170
KHHF 132235Z AUTO 15011G16KT 10SM BKN100 BKN120 32/17 A2992 RMK AO2 T03150173
KHHF 132215Z AUTO 13009KT 10SM BKN060 OVC100 31/18 A2992 RMK AO2 T03100176
KHHF 132155Z AUTO 16009G14KT 10SM BKN060 OVC120 31/17 A2992 RMK AO2 T03060174
KHHF 132135Z AUTO 16011KT 10SM BKN055 OVC120 30/17 A2992 RMK AO2 T02970174
KHHF 132115Z AUTO 16012G18KT 10SM SCT055 SCT065 BKN100 32/17 A2992 RMK AO2 T03170174
KHHF 132055Z AUTO 16010G15KT 110V180 10SM SCT065 SCT070 BKN100 31/17 A2993 RMK AO2 T03080165
KHHF 132035Z AUTO 12008G15KT 10SM BKN050 BKN065 OVC090 31/17 A2993 RMK AO2 T03140170
KHHF 132015Z AUTO 15006KT 10SM SCT050 BKN065 OVC100 29/17 A2994 RMK AO2 T02920172
KHHF 131955Z AUTO 13010G14KT 10SM BKN055 BKN065 BKN075 30/18 A2995 RMK AO2 T02980180
KHHF 131935Z AUTO 14007KT 10SM BKN050 BKN070 BKN100 30/18 A2996 RMK AO2 T02960175
KHHF 131915Z AUTO 14004G14KT 10SM SCT050 30/18 A2996 RMK AO2 T03020178
KHHF 131855Z AUTO 19009KT 10SM SCT046 SCT055 SCT065 31/18 A2998 RMK AO2 LTG DSNT SE T03070180
KHHF 131835Z AUTO 19007KT 10SM SCT046 29/18 A2998 RMK AO2 T02870176
KHHF 131815Z AUTO 18008KT 10SM CLR 30/18 A2999 RMK AO2 T02980176
KHHF 131755Z AUTO 16009KT 10SM CLR 29/17 A3000 RMK AO2 T02920174 10292 20206
KHHF 131735Z AUTO 15010KT 10SM CLR 29/18 A3000 RMK AO2 T02910176
KHHF 131715Z AUTO 15008KT 10SM CLR 28/19 A3001 RMK AO2 T02810190
KHHF 131655Z AUTO 15008KT 10SM CLR 27/19 A3002 RMK AO2 T02730192
KHHF 131635Z AUTO 14009KT 10SM SCT110 26/20 A3002 RMK AO2 T02630197
KHHF 131615Z AUTO 18008KT 10SM SCT110 25/21 A3003 RMK AO2 T02500210
KHHF 131555Z AUTO 17008KT 10SM CLR 24/21 A3004 RMK AO2 T02400212
KHHF 131535Z AUTO 16006KT 10SM SCT100 24/22 A3004 RMK AO2 T02390217
KHHF 131515Z AUTO 16006KT 10SM SCT060 BKN120 23/21 A3004 RMK AO2 T02260210
KHHF 131455Z AUTO 13005KT 10SM -RA SCT029 BKN060 OVC120 23/21 A3004 RMK AO2 P0001 60001 T02250213
KHHF 131435Z AUTO 13004KT 10SM -RA SCT037 BKN060 OVC120 22/21 A3005 RMK AO2 T02220213
KHHF 131415Z AUTO 11005KT 10SM -RA SCT035 SCT046 BKN120 23/21 A3004 RMK AO2 T02260212
KHHF 131355Z AUTO 00000KT 10SM -DZ SCT120 23/20 A3003 RMK AO2 T02280201
KHHF 131335Z AUTO 00000KT 10SM CLR 23/20 A3003 RMK AO2 T02250203
KHHF 131315Z AUTO 00000KT 10SM CLR 22/21 A3003 RMK AO2 T02210205
KHHF 131255Z AUTO 00000KT 10SM CLR 21/20 A3002 RMK AO2 LTG DSNT NE T02110203
KHHF 131235Z AUTO 00000KT 10SM CLR 21/20 A3002 RMK AO2 T02090202
KHHF 131215Z AUTO 00000KT 10SM SCT110 21/20 A3002 RMK AO2 T02060200
KHHF 131155Z AUTO 12003KT 10SM BKN110 21/20 A3002 RMK AO2 T02060199 10211 20197
KHHF 131135Z AUTO 11003KT 10SM -RA SCT120 20/20 A3002 RMK AO2 T02030197
KHHF 131115Z AUTO 00000KT 10SM CLR 20/19 A3002 RMK AO2 LTG DSNT NE T02000192
KHHF 131055Z AUTO 25005KT 10SM CLR 20/19 A3002 RMK AO2 T02000192
KHHF 131035Z AUTO 00000KT 10SM CLR 20/19 A3003 RMK AO2 LTG DSNT NE T01970190
KHHF 131015Z AUTO 00000KT 10SM CLR 20/19 A3004 RMK AO2 LTG DSNT NE T01990191
KHHF 130955Z AUTO 00000KT 10SM CLR 20/19 A3004 RMK AO2 LTG DSNT NE T02020193
KHHF 130935Z AUTO 00000KT 10SM CLR 20/19 A3005 RMK AO2 LTG DSNT NE T02020194
KHHF 130915Z AUTO 00000KT 10SM CLR 20/19 A3005 RMK AO2 LTG DSNT NE T02020194
KHHF 130855Z AUTO 00000KT 10SM CLR 20/20 A3005 RMK AO2 LTG DSNT NE T02030195
KHHF 130835Z AUTO 00000KT 10SM CLR 21/20 A3006 RMK AO2 LTG DSNT NE T02050195
KHHF 130815Z AUTO 11003KT 10SM CLR 21/20 A3006 RMK AO2 T02050195
KHHF 130755Z AUTO 00000KT 10SM CLR 21/20 A3005 RMK AO2 T02050195
KHHF 130735Z AUTO 00000KT 10SM CLR 21/20 A3005 RMK AO2 T02050195
KHHF 130715Z AUTO 00000KT 10SM CLR 21/19 A3006 RMK AO2 T02050194
KHHF 130655Z AUTO 12003KT 10SM CLR 21/19 A3006 RMK AO2 T02050193
KHHF 130635Z AUTO 00000KT 10SM CLR 21/19 A3007 RMK AO2 T02060193
KHHF 130615Z AUTO 09004KT 10SM CLR 21/19 A3007 RMK AO2 T02090193
KHHF 130555Z AUTO 13004KT 10SM CLR 21/19 A3007 RMK AO2 T02110190 10300 20211 403100155
KHHF 130535Z AUTO 14003KT 10SM CLR 21/19 A3007 RMK AO2 T02130190
KHHF 130515Z AUTO 00000KT 10SM CLR 22/19 A3008 RMK AO2 T02150190
KHHF 130455Z AUTO 12003KT 10SM CLR 22/19 A3007 RMK AO2 T02180190
KHHF 130435Z AUTO 14003KT 10SM CLR 22/19 A3006 RMK AO2 T02180190
KHHF 130415Z AUTO 12004KT 10SM CLR 22/19 A3006 RMK AO2 T02240192